Current Weather

China Lake Naws (Armitage Fld)

China Lake, California (KNID)

Report from: Thursday, July 18, 2024 5:56 AM PDT
Current time: Thursday, July 18, 2024 6:46 AM PDT

Nearby weather – Weather history – Daily summaries
Weather forecast

Temperature29.4°C (84.9°F)
Heat index28.1°C (82.6°F)
Dew point7.8°C (46.0°F)
Winds 10 kts (5.1 m/s, 11.5 mph) South (180°)
Visibility10 mi. (16.1 km)
Clouds Ceiling: Broken clouds 18,000 ft. (5,486 m)
Altimeter29.94 in.Hg (1014 mB)
Relative humidity26 %
Density altitude1,882 ft. (574 m)
Sea-level pressure101.1 kPa (1011 mB, 29.85 in.Hg)
Remarks System requires maintenance
Automated weather observing station with precipitation discriminator
Flight conditions Visual Meteorological Conditions
Raw dataKNID 181256Z 18010KT 10SM BKN180 29/08 A2994 RMK AO2 SLP110 T02940078 $
An error has occurred. This application may no longer respond until reloaded. Reload 🗙